createdAt,value
2018-07-30T00:02:05.038Z,4.00
2018-07-30T00:04:33.955Z,4.17
2018-07-30T00:07:02.368Z,4.22
2018-07-30T00:09:30.474Z,4.25
2018-07-30T00:11:59.581Z,4.72
2018-07-30T00:14:27.917Z,4.12
2018-07-30T00:16:56.462Z,4.03
2018-07-30T00:19:26.014Z,3.65
2018-07-30T00:21:55.165Z,4.00
2018-07-30T00:24:23.937Z,4.55
2018-07-30T00:26:52.237Z,4.53
2018-07-30T00:29:20.796Z,4.40
2018-07-30T00:31:49.049Z,4.25
2018-07-30T00:34:17.882Z,4.80
2018-07-30T00:36:47.158Z,4.45
2018-07-30T00:39:15.513Z,4.50
2018-07-30T00:41:43.877Z,4.85
2018-07-30T00:44:11.935Z,4.80
2018-07-30T00:46:41.429Z,5.15
2018-07-30T00:49:09.890Z,4.55
2018-07-30T00:51:38.497Z,5.22
2018-07-30T00:54:06.932Z,5.12
2018-07-30T00:56:35.612Z,5.55
2018-07-30T00:59:03.453Z,4.58
2018-07-30T01:01:33.090Z,5.90
2018-07-30T01:04:01.437Z,5.20
2018-07-30T01:06:29.500Z,5.55
2018-07-30T01:08:58.761Z,5.50
2018-07-30T01:11:26.941Z,5.12
2018-07-30T01:13:55.897Z,5.15
2018-07-30T01:16:24.968Z,5.08
2018-07-30T01:18:54.321Z,5.20
2018-07-30T01:21:22.917Z,5.12
2018-07-30T01:23:51.398Z,5.55
2018-07-30T01:26:25.101Z,5.30
2018-07-30T01:28:53.854Z,5.65
2018-07-30T01:31:23.849Z,5.40
2018-07-30T01:33:52.517Z,5.40
2018-07-30T01:36:20.722Z,5.53
2018-07-30T01:38:49.676Z,5.00
2018-07-30T01:41:18.361Z,4.87
2018-07-30T01:43:47.416Z,6.10
2018-07-30T01:46:15.311Z,5.33
2018-07-30T01:48:43.533Z,5.33
2018-07-30T01:51:11.906Z,5.58
2018-07-30T01:53:41.314Z,4.85
2018-07-30T01:56:10.918Z,6.28
2018-07-30T01:59:42.868Z,5.62
2018-07-30T02:03:14.270Z,5.67
2018-07-30T02:05:42.379Z,5.83
2018-07-30T02:08:10.742Z,5.70
2018-07-30T02:10:38.805Z,5.80
2018-07-30T02:13:07.325Z,5.33
2018-07-30T02:15:35.738Z,5.50
2018-07-30T02:18:04.761Z,5.62
2018-07-30T02:20:34.420Z,6.30
2018-07-30T02:23:02.918Z,6.47
2018-07-30T02:25:31.913Z,6.33
2018-07-30T02:28:00.101Z,6.22
2018-07-30T02:30:28.902Z,5.85
2018-07-30T02:32:57.079Z,5.58
2018-07-30T02:35:25.801Z,5.62
2018-07-30T02:37:54.061Z,6.00
2018-07-30T02:40:22.781Z,4.90
2018-07-30T02:42:51.489Z,5.65
2018-07-30T02:45:19.758Z,5.92
2018-07-30T02:47:48.116Z,6.60
2018-07-30T02:50:16.337Z,5.62
2018-07-30T02:52:44.832Z,5.70
2018-07-30T02:55:12.955Z,5.75
2018-07-30T02:57:42.311Z,5.65
2018-07-30T03:00:11.219Z,6.08
2018-07-30T03:02:39.285Z,5.72
2018-07-30T03:05:08.376Z,6.28
2018-07-30T03:07:37.072Z,6.25
2018-07-30T03:10:05.421Z,5.70
2018-07-30T03:12:33.801Z,6.40
2018-07-30T03:15:01.950Z,6.78
2018-07-30T03:17:30.223Z,6.55
2018-07-30T03:19:58.877Z,42.00
2018-07-30T03:22:27.917Z,27.50
2018-07-30T03:24:56.425Z,16.52
2018-07-30T03:27:25.170Z,14.13
2018-07-30T03:29:54.381Z,11.55
2018-07-30T03:32:22.461Z,8.90
2018-07-30T03:34:51.290Z,8.45
2018-07-30T03:37:19.569Z,8.85
2018-07-30T03:39:47.693Z,8.20
2018-07-30T03:42:17.734Z,7.75
2018-07-30T03:44:48.513Z,7.62
2018-07-30T03:47:16.718Z,7.35
2018-07-30T03:49:45.637Z,6.87
2018-07-30T03:52:14.553Z,7.00
2018-07-30T03:54:43.194Z,6.83
2018-07-30T03:57:12.485Z,6.87
2018-07-30T03:59:41.080Z,7.90
2018-07-30T04:02:10.054Z,6.83
2018-07-30T04:04:39.452Z,6.90
2018-07-30T04:07:07.812Z,6.83
2018-07-30T04:09:36.237Z,6.65
2018-07-30T04:12:04.774Z,7.15
2018-07-30T04:14:32.829Z,6.75
2018-07-30T04:17:01.488Z,6.83
2018-07-30T04:19:29.637Z,7.12
2018-07-30T04:21:58.770Z,6.72
2018-07-30T04:24:27.741Z,6.90
2018-07-30T04:26:56.332Z,7.08
2018-07-30T04:29:24.496Z,6.37
2018-07-30T04:31:52.570Z,6.80
2018-07-30T04:34:20.647Z,7.08
2018-07-30T04:36:49.308Z,6.95
2018-07-30T04:39:17.484Z,6.42
2018-07-30T04:41:45.560Z,6.42
2018-07-30T04:44:13.729Z,6.50
2018-07-30T04:46:42.990Z,6.28
2018-07-30T04:49:11.061Z,7.20
2018-07-30T04:51:39.163Z,5.78
2018-07-30T04:54:07.393Z,6.75
2018-07-30T04:56:36.365Z,6.05
2018-07-30T04:59:05.040Z,6.65
2018-07-30T05:01:33.976Z,6.58
2018-07-30T05:04:03.338Z,6.72
2018-07-30T05:06:31.401Z,6.17
2018-07-30T05:08:59.641Z,6.95
2018-07-30T05:11:27.789Z,6.17
2018-07-30T05:13:56.577Z,6.37
2018-07-30T05:16:25.527Z,6.53
2018-07-30T05:18:53.745Z,6.22
2018-07-30T05:21:22.553Z,6.33
2018-07-30T05:23:50.648Z,6.45
2018-07-30T05:26:19.069Z,6.12
2018-07-30T05:28:47.745Z,6.83
2018-07-30T05:31:16.512Z,5.85
2018-07-30T05:33:44.866Z,6.15
2018-07-30T05:36:13.215Z,6.00
2018-07-30T05:38:41.365Z,6.58
2018-07-30T05:41:10.502Z,6.85
2018-07-30T05:43:39.473Z,6.70
2018-07-30T05:46:08.341Z,6.08
2018-07-30T05:48:37.265Z,6.33
2018-07-30T05:51:06.231Z,6.92
2018-07-30T05:53:34.612Z,6.78
2018-07-30T05:56:02.645Z,5.85
2018-07-30T05:58:31.313Z,5.95
2018-07-30T06:01:00.353Z,5.90
2018-07-30T06:03:29.027Z,7.50
2018-07-30T06:05:57.252Z,6.50
2018-07-30T06:08:25.634Z,6.00
2018-07-30T06:10:54.327Z,6.12
2018-07-30T06:13:22.833Z,6.17
2018-07-30T06:15:51.304Z,6.42
2018-07-30T06:18:20.196Z,5.15
2018-07-30T06:20:48.279Z,6.75
2018-07-30T06:23:16.470Z,6.50
2018-07-30T06:25:45.364Z,5.97
2018-07-30T06:28:13.521Z,6.87
2018-07-30T06:30:42.017Z,5.75
2018-07-30T06:33:10.446Z,6.20
2018-07-30T06:35:39.329Z,6.40
2018-07-30T06:38:07.406Z,6.62
2018-07-30T06:40:35.850Z,6.08
2018-07-30T06:43:04.078Z,5.78
2018-07-30T06:45:32.513Z,6.83
2018-07-30T06:48:02.893Z,6.35
2018-07-30T06:50:31.909Z,5.87
2018-07-30T06:53:00.137Z,5.50
2018-07-30T06:55:29.211Z,6.35
2018-07-30T06:57:58.229Z,5.47
2018-07-30T07:00:26.382Z,4.72
2018-07-30T07:02:55.189Z,5.85
2018-07-30T07:05:24.537Z,5.80
2018-07-30T07:07:53.571Z,4.87
2018-07-30T07:10:22.856Z,4.78
2018-07-30T07:12:52.121Z,5.08
2018-07-30T07:15:20.363Z,4.50
2018-07-30T07:17:49.445Z,4.60
2018-07-30T07:20:18.765Z,5.25
2018-07-30T07:22:47.777Z,4.03
2018-07-30T07:25:16.926Z,5.00
2018-07-30T07:27:45.109Z,4.03
2018-07-30T07:30:14.049Z,4.75
2018-07-30T07:32:43.092Z,4.22
2018-07-30T07:35:12.315Z,4.53
2018-07-30T07:37:40.582Z,4.58
2018-07-30T07:40:09.299Z,4.47
2018-07-30T07:42:38.277Z,4.85
2018-07-30T07:45:07.266Z,4.83
2018-07-30T07:47:35.982Z,4.20
2018-07-30T07:50:04.625Z,4.58
2018-07-30T07:52:33.588Z,4.45
2018-07-30T07:55:02.309Z,4.00
2018-07-30T07:57:30.579Z,4.20
2018-07-30T07:59:58.787Z,3.83
2018-07-30T08:02:27.168Z,3.90
2018-07-30T08:04:55.289Z,4.20
2018-07-30T08:07:25.733Z,4.10
2018-07-30T08:09:55.043Z,3.95
2018-07-30T08:12:23.661Z,4.28
2018-07-30T08:14:52.234Z,5.75
2018-07-30T08:17:20.294Z,4.00
2018-07-30T08:19:48.628Z,4.20
2018-07-30T08:22:17.691Z,3.58
2018-07-30T08:24:45.833Z,3.65
2018-07-30T08:27:14.117Z,3.60
2018-07-30T08:29:42.797Z,3.98
2018-07-30T09:54:09.368Z,2.80
2018-07-30T09:56:37.781Z,2.95
2018-07-30T09:59:06.978Z,2.80
2018-07-30T10:01:35.766Z,2.80
2018-07-30T10:04:04.133Z,2.90
2018-07-30T10:06:32.845Z,3.42
2018-07-30T10:09:01.897Z,2.80
2018-07-30T10:11:30.046Z,2.95
2018-07-30T10:13:58.925Z,3.25
2018-07-30T10:16:26.993Z,3.00
2018-07-30T10:18:55.157Z,3.27
2018-07-30T10:21:25.109Z,2.40
2018-07-30T10:23:53.625Z,2.87
2018-07-30T10:26:22.042Z,2.67
2018-07-30T10:28:50.552Z,3.05
2018-07-30T10:31:19.196Z,2.30
2018-07-30T10:33:48.152Z,2.40
2018-07-30T10:36:17.112Z,2.35
2018-07-30T10:38:45.724Z,2.72
2018-07-30T10:41:14.484Z,2.20
2018-07-30T10:43:43.634Z,2.80
2018-07-30T10:46:11.870Z,2.60
2018-07-30T10:48:40.050Z,2.25
2018-07-30T10:51:08.857Z,2.65
2018-07-30T10:53:37.189Z,2.15
2018-07-30T10:56:06.109Z,2.10
2018-07-30T10:58:34.921Z,2.70
2018-07-30T11:01:02.869Z,2.67
2018-07-30T11:03:31.444Z,2.80
2018-07-30T11:06:00.042Z,2.45
2018-07-30T11:08:29.012Z,2.50
2018-07-30T11:12:00.017Z,2.60
2018-07-30T11:14:29.069Z,2.25
2018-07-30T11:16:57.495Z,2.70
2018-07-30T11:19:25.890Z,3.42
2018-07-30T11:21:54.217Z,2.20
2018-07-30T11:24:22.389Z,2.15
2018-07-30T11:26:50.885Z,2.12
2018-07-30T11:29:18.868Z,2.15
2018-07-30T11:31:47.305Z,2.33
2018-07-30T11:34:16.441Z,3.35
2018-07-30T11:36:45.689Z,1.90
2018-07-30T11:39:13.897Z,3.35
2018-07-30T11:41:42.475Z,2.20
2018-07-30T11:44:10.599Z,2.10
2018-07-30T11:46:39.266Z,2.15
2018-07-30T11:49:07.779Z,2.67
2018-07-30T11:51:36.764Z,2.30
2018-07-30T11:54:05.026Z,2.30
2018-07-30T11:56:34.778Z,2.55
2018-07-30T11:59:03.234Z,1.90
2018-07-30T12:01:31.967Z,2.45
2018-07-30T12:04:01.094Z,2.35
2018-07-30T12:06:29.705Z,2.25
2018-07-30T12:08:57.958Z,2.33
2018-07-30T12:11:26.225Z,2.20
2018-07-30T12:13:54.145Z,2.40
2018-07-30T12:16:22.799Z,2.35
2018-07-30T12:18:51.145Z,2.45
2018-07-30T12:21:19.568Z,2.35
2018-07-30T12:23:48.281Z,2.83
2018-07-30T12:26:17.596Z,1.82
2018-07-30T12:28:45.836Z,3.08
2018-07-30T12:31:14.237Z,2.35
2018-07-30T12:33:43.547Z,2.20
2018-07-30T12:36:12.556Z,2.17
2018-07-30T12:38:40.542Z,2.33
2018-07-30T12:41:08.418Z,2.10
2018-07-30T12:43:36.527Z,2.00
2018-07-30T12:46:04.804Z,1.82
2018-07-30T12:48:33.237Z,1.72
2018-07-30T12:51:02.557Z,1.92
2018-07-30T12:53:30.693Z,2.02
2018-07-30T12:55:58.837Z,2.15
2018-07-30T12:58:27.789Z,2.12
2018-07-30T13:00:55.713Z,2.08
2018-07-30T13:03:23.871Z,2.37
2018-07-30T13:05:52.885Z,1.72
2018-07-30T13:08:20.973Z,2.25
2018-07-30T13:10:49.129Z,1.90
2018-07-30T13:13:17.677Z,2.10
2018-07-30T13:15:46.714Z,2.27
2018-07-30T13:18:15.811Z,2.15
2018-07-30T13:20:43.881Z,2.02
2018-07-30T13:23:12.671Z,2.87
2018-07-30T13:25:41.598Z,2.37
2018-07-30T13:28:10.465Z,2.85
2018-07-30T13:30:38.913Z,2.30
2018-07-30T13:33:06.981Z,2.80
2018-07-30T13:35:35.647Z,2.83
2018-07-30T13:38:04.165Z,2.65
2018-07-30T13:40:32.970Z,2.98
2018-07-30T13:43:01.121Z,2.60
2018-07-30T13:45:29.277Z,2.70
2018-07-30T13:47:57.501Z,2.70
2018-07-30T13:50:25.829Z,3.37
2018-07-30T13:52:54.572Z,2.90
2018-07-30T13:55:22.427Z,2.75
2018-07-30T13:57:51.169Z,2.37
2018-07-30T14:00:19.698Z,3.15
2018-07-30T14:02:48.633Z,2.55
2018-07-30T14:05:16.820Z,2.42
2018-07-30T14:07:45.638Z,2.70
2018-07-30T14:10:14.722Z,3.00
2018-07-30T14:12:42.837Z,2.77
2018-07-30T14:15:11.294Z,2.77
2018-07-30T14:17:39.830Z,2.80
2018-07-30T14:20:09.219Z,3.50
2018-07-30T14:22:37.628Z,2.67
2018-07-30T14:25:07.463Z,3.72
2018-07-30T14:27:35.697Z,3.02
2018-07-30T14:30:04.277Z,2.77
2018-07-30T14:32:33.152Z,2.60
2018-07-30T14:35:01.192Z,2.58
2018-07-30T14:37:30.281Z,2.30
2018-07-30T14:39:58.690Z,2.60
2018-07-30T14:42:27.321Z,2.80
2018-07-30T14:44:55.706Z,3.08
2018-07-30T14:47:24.614Z,2.70
2018-07-30T14:49:52.436Z,2.83
2018-07-30T14:52:20.528Z,2.40
2018-07-30T14:54:49.697Z,3.00
2018-07-30T14:57:18.062Z,2.62
2018-07-30T14:59:46.291Z,2.85
2018-07-30T15:02:14.354Z,2.87
2018-07-30T15:04:43.583Z,2.65
2018-07-30T15:07:11.757Z,2.70
2018-07-30T15:09:40.510Z,2.67
2018-07-30T15:12:08.648Z,2.77
2018-07-30T15:14:37.917Z,2.80
2018-07-30T15:17:06.832Z,2.80
2018-07-30T15:19:35.093Z,2.62
2018-07-30T15:22:03.678Z,2.58
2018-07-30T15:24:33.445Z,2.87
2018-07-30T15:27:02.338Z,2.83
2018-07-30T15:29:30.448Z,2.35
2018-07-30T15:31:58.653Z,2.60
2018-07-30T15:34:27.617Z,2.65
2018-07-30T15:36:56.321Z,2.25
2018-07-30T15:39:24.465Z,2.70
2018-07-30T15:41:52.653Z,2.70
2018-07-30T15:44:20.715Z,2.65
2018-07-30T15:46:49.414Z,2.92
2018-07-30T15:49:18.889Z,2.50
2018-07-30T15:51:48.068Z,2.83
2018-07-30T15:54:16.837Z,2.60
2018-07-30T15:56:48.978Z,2.67
2018-07-30T15:59:17.082Z,3.37
2018-07-30T16:01:45.546Z,4.28
2018-07-30T16:04:13.756Z,2.85
2018-07-30T16:06:41.921Z,2.90
2018-07-30T16:09:10.789Z,2.65
2018-07-30T16:11:39.237Z,2.58
2018-07-30T16:14:07.957Z,3.00
2018-07-30T16:16:36.106Z,2.65
2018-07-30T16:19:04.831Z,2.75
2018-07-30T16:21:33.981Z,3.05
2018-07-30T16:24:04.218Z,2.80
2018-07-30T16:26:32.481Z,2.92
2018-07-30T16:29:00.721Z,2.87
2018-07-30T16:31:28.716Z,2.72
2018-07-30T16:33:56.992Z,2.72
2018-07-30T16:36:25.941Z,2.95
2018-07-30T16:38:54.408Z,4.45
2018-07-30T16:41:22.729Z,2.75
2018-07-30T16:43:51.545Z,2.58
2018-07-30T16:46:19.669Z,3.33
2018-07-30T16:48:48.286Z,3.22
2018-07-30T16:51:16.695Z,3.00
2018-07-30T16:53:44.897Z,3.00
2018-07-30T16:56:13.737Z,2.50
2018-07-30T16:58:42.251Z,2.58
2018-07-30T17:01:10.307Z,2.65
2018-07-30T17:03:38.494Z,3.35
2018-07-30T17:06:06.817Z,2.90
2018-07-30T17:08:35.835Z,3.15
2018-07-30T17:11:04.400Z,3.20
2018-07-30T17:13:33.169Z,2.83
2018-07-30T17:16:05.440Z,3.08
2018-07-30T17:18:33.879Z,2.98
2018-07-30T17:21:02.257Z,3.00
2018-07-30T17:23:30.697Z,3.10
2018-07-30T17:25:59.069Z,2.98
2018-07-30T17:28:27.276Z,5.12
2018-07-30T17:30:55.206Z,3.80
2018-07-30T17:33:23.885Z,3.27
2018-07-30T17:35:51.938Z,3.10
2018-07-30T17:38:20.181Z,3.20
2018-07-30T17:40:48.605Z,5.58
2018-07-30T17:43:21.789Z,4.15
2018-07-30T17:45:50.707Z,3.75
2018-07-30T17:48:18.857Z,4.65
2018-07-30T17:50:47.361Z,3.95
2018-07-30T17:53:16.246Z,4.12
2018-07-30T17:55:44.689Z,3.50
2018-07-30T17:58:13.397Z,3.20
2018-07-30T18:00:41.552Z,3.30
2018-07-30T18:03:10.269Z,4.10
2018-07-30T18:05:40.073Z,3.17
2018-07-30T18:08:08.885Z,3.35
2018-07-30T18:10:37.264Z,3.15
2018-07-30T18:13:05.972Z,3.37
2018-07-30T18:15:34.173Z,6.40
2018-07-30T18:18:03.721Z,5.50
2018-07-30T18:20:31.925Z,4.10
2018-07-30T18:23:00.078Z,3.08
2018-07-30T18:25:28.670Z,3.17
2018-07-30T18:27:57.222Z,3.17
2018-07-30T18:30:25.794Z,4.00
2018-07-30T18:32:54.585Z,3.05
2018-07-30T18:35:24.253Z,3.22
2018-07-30T18:37:52.465Z,3.30
2018-07-30T18:40:20.530Z,2.70
2018-07-30T18:42:48.731Z,3.30
2018-07-30T18:45:17.246Z,3.12
2018-07-30T18:47:46.005Z,3.27
2018-07-30T18:50:15.229Z,2.92
2018-07-30T18:52:43.689Z,3.70
2018-07-30T18:55:11.885Z,3.20
2018-07-30T18:57:40.810Z,3.17
2018-07-30T19:00:09.052Z,3.35
2018-07-30T19:02:37.194Z,3.12
2018-07-30T19:05:05.661Z,3.42
2018-07-30T19:07:34.213Z,3.30
2018-07-30T19:10:02.641Z,2.90
2018-07-30T19:12:31.718Z,3.22
2018-07-30T19:15:00.090Z,3.83
2018-07-30T19:17:29.045Z,3.45
2018-07-30T19:19:57.177Z,2.83
2018-07-30T19:22:26.657Z,3.22
2018-07-30T19:24:55.112Z,3.22
2018-07-30T19:27:24.095Z,4.05
2018-07-30T19:29:52.225Z,3.10
2018-07-30T19:32:21.289Z,2.92
2018-07-30T19:34:49.721Z,3.83
2018-07-30T19:37:17.781Z,4.03
2018-07-30T19:39:46.308Z,3.98
2018-07-30T19:42:14.989Z,3.12
2018-07-30T19:44:43.179Z,7.25
2018-07-30T19:47:12.945Z,3.92
2018-07-30T19:49:41.130Z,3.90
2018-07-30T19:52:10.035Z,4.40
2018-07-30T19:54:38.120Z,4.30
2018-07-30T19:57:07.262Z,3.98
2018-07-30T19:59:35.408Z,4.40
2018-07-30T20:02:03.360Z,4.67
2018-07-30T20:04:32.054Z,4.80
2018-07-30T20:07:00.226Z,5.05
2018-07-30T20:09:28.367Z,5.15
2018-07-30T20:11:57.869Z,4.80
2018-07-30T20:14:26.326Z,4.83
2018-07-30T20:16:54.305Z,4.95
2018-07-30T20:19:22.348Z,4.67
2018-07-30T20:21:50.816Z,5.15
2018-07-30T20:24:18.997Z,5.60
2018-07-30T20:26:47.134Z,4.85
2018-07-30T20:29:15.798Z,4.62
2018-07-30T20:31:44.030Z,4.42
2018-07-30T20:34:12.943Z,4.90
2018-07-30T20:36:41.074Z,4.90
2018-07-30T20:39:09.654Z,5.20
2018-07-30T20:41:37.821Z,4.85
2018-07-30T20:44:05.893Z,5.15
2018-07-30T20:46:35.229Z,4.60
2018-07-30T20:49:03.503Z,4.90
2018-07-30T20:51:33.081Z,5.03
2018-07-30T20:54:01.601Z,4.55
2018-07-30T20:56:30.608Z,4.22
2018-07-30T20:58:59.076Z,5.10
2018-07-30T21:01:28.013Z,4.80
2018-07-30T21:03:56.677Z,4.83
2018-07-30T21:06:26.048Z,5.10
2018-07-30T21:08:54.368Z,5.30
2018-07-30T21:11:22.470Z,4.70
2018-07-30T21:13:50.602Z,4.78
2018-07-30T21:16:18.824Z,5.28
2018-07-30T21:18:47.817Z,5.05
2018-07-30T21:21:16.532Z,4.80
2018-07-30T21:23:45.597Z,5.60
2018-07-30T21:26:13.781Z,5.40
2018-07-30T21:28:42.417Z,4.92
2018-07-30T21:31:10.899Z,5.05
2018-07-30T21:33:39.464Z,5.28
2018-07-30T21:36:07.873Z,5.00
2018-07-30T21:38:37.236Z,5.37
2018-07-30T21:41:05.546Z,5.53
2018-07-30T21:43:33.830Z,4.97
2018-07-30T21:46:02.065Z,7.25
2018-07-30T21:48:30.208Z,6.05
2018-07-30T21:50:58.786Z,5.72
2018-07-30T21:53:26.857Z,5.60
2018-07-30T21:55:56.475Z,6.15
2018-07-30T21:58:24.809Z,6.05
2018-07-30T22:00:56.645Z,5.83
2018-07-30T22:03:26.061Z,5.45
2018-07-30T22:05:58.298Z,5.62
2018-07-30T22:08:27.742Z,6.25
2018-07-30T22:10:56.053Z,6.10
2018-07-30T22:13:24.498Z,4.97
2018-07-30T22:15:52.918Z,5.90
2018-07-30T22:18:20.969Z,5.75
2018-07-30T22:20:49.304Z,6.03
2018-07-30T22:23:17.477Z,6.25
2018-07-30T22:25:45.868Z,5.45
2018-07-30T22:28:14.855Z,6.28
2018-07-30T22:30:44.031Z,5.97
2018-07-30T22:33:12.579Z,6.22
2018-07-30T22:35:40.796Z,5.85
2018-07-30T22:38:09.625Z,6.35
2018-07-30T22:40:38.301Z,5.55
2018-07-30T22:43:07.205Z,5.62
2018-07-30T22:45:35.676Z,6.42
2018-07-30T22:48:04.329Z,6.65
2018-07-30T22:50:33.482Z,7.35
2018-07-30T22:53:01.437Z,6.25
2018-07-30T22:55:30.229Z,6.53
2018-07-30T22:57:58.104Z,6.92
2018-07-30T23:00:27.492Z,6.55
2018-07-30T23:02:55.578Z,6.60
2018-07-30T23:05:23.985Z,6.67
2018-07-30T23:07:52.185Z,5.90
2018-07-30T23:10:20.366Z,6.30
2018-07-30T23:12:48.569Z,7.00
2018-07-30T23:15:16.723Z,6.47
2018-07-30T23:17:44.937Z,6.10
2018-07-30T23:20:12.781Z,6.87
2018-07-30T23:22:41.641Z,6.60
2018-07-30T23:25:10.553Z,6.25
2018-07-30T23:27:39.417Z,6.10
2018-07-30T23:30:08.333Z,6.90
2018-07-30T23:32:36.473Z,6.28
2018-07-30T23:35:04.698Z,6.95
2018-07-30T23:37:34.268Z,6.50
2018-07-30T23:40:03.309Z,6.12
2018-07-30T23:42:31.577Z,6.90
2018-07-30T23:45:00.326Z,7.25
2018-07-30T23:47:28.677Z,5.47
2018-07-30T23:49:56.629Z,6.87
2018-07-30T23:52:25.141Z,6.28
2018-07-30T23:54:54.401Z,6.25
2018-07-30T23:57:23.098Z,5.85
2018-07-30T23:59:51.945Z,6.95
